Latest Weather Observations for Leonora Airport

IDW60801

Issued at 11:03 am WST Tuesday 27 January 2015 (issued every 30 minutes, with the page automatically refreshed every 10 minutes)

About weather observations | Map of weather stations | Latest weather observations for WA | Other Formats
Station Details ID: 012241 Name: LEONORA AERO Lat: -28.88 Lon: 121.32 Height: 370.0 m
Data from the previous 72 hours. | See also: Recent months for locations in Western Australia
Date/Time
WST
Temp
°C
App
Temp
°C
Dew
Point
Rel
Hum
%
Delta-T
°C
Wind Press
QNH
hPa
Press
MSL
hPa
Rain
since 9 am
mm
Dir
 
Spd
km/h
Gust
km/h
Spd
kts
Gust
kts
27/11:00am 26.1 22.0 6.2 28 10.5 SSE 17 24 9 13 1012.3 1009.6 0.0
27/10:30am 28.5 22.9 1.1 17 13.4 ESE 20 33 11 18 1012.4 1009.8 0.0
27/10:00am 27.8 22.3 0.5 17 13.2 E 19 26 10 14 1012.7 1010.0 0.0
27/09:30am 27.2 21.7 0.8 18 12.8 E 19 28 10 15 1012.9 1010.2 0.0
27/09:00am 27.1 22.0 0.8 18 12.7 E 17 24 9 13 1013.0 1010.3 0.0
27/08:30am 26.8 21.3 0.5 18 12.6 ENE 19 24 10 13 1013.0 1010.3 0.0
27/08:00am 26.6 20.5 0.4 18 12.5 ENE 22 32 12 17 1013.0 1010.3 0.0
27/07:30am 25.9 20.4 0.5 19 12.1 E 19 26 10 14 1012.9 1010.2 0.0
27/07:00am 25.6 20.1 0.3 19 12.0 E 19 24 10 13 1012.4 1009.8 0.0
27/06:30am 25.3 19.5 0.0 19 11.9 E 20 26 11 14 1012.2 1009.5 0.0
27/06:00am 25.1 19.5 -0.1 19 11.8 ESE 19 24 10 13 1012.0 1009.3 0.0
27/05:30am 25.3 19.7 0.0 19 11.9 ESE 19 26 10 14 1011.7 1009.0 0.0
27/05:00am 25.6 19.9 0.3 19 12.0 E 20 26 11 14 1011.5 1008.8 0.0
27/04:30am 25.9 20.8 0.5 19 12.1 E 17 22 9 12 1011.3 1008.6 0.0
27/04:00am 26.3 20.3 0.9 19 12.2 ENE 22 30 12 16 1011.2 1008.5 0.0
27/03:30am 26.5 20.6 1.7 20 12.1 E 22 32 12 17 1010.9 1008.2 0.0
27/03:00am 26.4 21.5 1.7 20 12.1 E 17 22 9 12 1010.8 1008.1 0.0
27/02:30am 26.5 21.0 1.7 20 12.1 E 20 28 11 15 1010.3 1007.6 0.0
27/02:00am 26.8 20.2 2.0 20 12.2 E 26 35 14 19 1010.1 1007.4 0.0
27/01:30am 27.0 20.4 2.1 20 12.3 E 26 35 14 19 1010.2 1007.5 0.0
27/01:00am 27.3 20.9 3.1 21 12.2 E 26 35 14 19 1010.4 1007.7 0.0
27/12:30am 27.6 21.2 3.3 21 12.3 E 26 39 14 21 1010.5 1007.8 0.0
27/12:00am 27.9 21.6 3.6 21 12.4 E 26 37 14 20 1010.7 1008.0 0.0
 
Date/Time
WST
Temp
°C
App
Temp
°C
Dew
Point
Rel
Hum
%
Delta-T
°C
Wind Press
QNH
hPa
Press
MSL
hPa
Rain
since 9 am
mm
Dir
 
Spd
km/h
Gust
km/h
Spd
kts
Gust
kts
26/11:30pm 28.2 21.9 3.8 21 12.5 E 26 37 14 20 1010.8 1008.1 0.0
26/11:00pm 28.6 22.0 4.2 21 12.6 E 28 39 15 21 1010.9 1008.2 0.0
26/10:30pm 29.1 22.2 4.6 21 12.8 ESE 30 43 16 23 1011.1 1008.4 0.0
26/10:00pm 29.4 22.8 4.1 20 13.2 ESE 28 41 15 22 1010.9 1008.2 0.0
26/09:30pm 29.7 22.8 4.4 20 13.2 ESE 30 43 16 23 1010.6 1007.9 0.0
26/09:00pm 30.2 23.7 4.8 20 13.4 ESE 28 46 15 25 1010.5 1007.8 0.0
26/08:36pm 30.7 23.8 4.4 19 13.8 ESE 30 48 16 26 1010.1 1007.4 0.0
26/08:30pm 30.8 23.5 4.5 19 13.9 ESE 32 48 17 26 1009.9 1007.1 0.0
26/08:28pm 30.9 24.0 4.6 19 13.9 ESE 30 48 16 26 1009.8 1007.0 0.0
26/08:00pm 31.7 26.1 5.3 19 14.2 E 24 33 13 18 1009.4 1006.7 0.0
26/07:30pm 32.1 25.8 5.6 19 14.3 ESE 28 35 15 19 1009.2 1006.5 0.0
26/07:00pm 32.5 26.1 5.1 18 14.7 E 28 39 15 21 1009.2 1006.5 0.0
26/06:30pm 33.1 26.4 5.6 18 14.9 ESE 30 41 16 22 1008.8 1006.1 0.0
26/06:00pm 33.9 27.5 5.4 17 15.5 E 28 39 15 21 1008.7 1006.0 0.0
26/05:30pm 34.3 28.2 4.9 16 15.9 E 26 43 14 23 1008.7 1006.0 0.0
26/05:00pm 34.8 29.2 5.3 16 16.1 E 24 35 13 19 1008.9 1006.2 0.0
26/04:30pm 34.8 29.2 5.3 16 16.1 E 24 37 13 20 1009.0 1006.3 0.0
26/04:13pm 35.3 29.0 5.7 16 16.3 ENE 28 52 15 28 1009.1 1006.4 0.0
26/04:00pm 34.6 28.6 5.1 16 16.1 E 26 35 14 19 1009.2 1006.5 0.0
26/03:30pm 35.0 29.8 5.4 16 16.2 ESE 22 33 12 18 1009.6 1006.9 0.0
26/03:00pm 35.0 30.4 6.3 17 15.9 E 20 32 11 17 1010.1 1007.4 0.0
26/02:30pm 33.4 27.9 5.9 18 15.0 E 24 41 13 22 1010.5 1007.8 0.0
26/02:00pm 33.4 27.9 5.9 18 15.1 E 24 37 13 20 1010.8 1008.1 0.0
26/01:30pm 32.3 27.1 5.7 19 14.4 E 22 35 12 19 1011.3 1008.6 0.0
26/01:00pm 32.3 26.4 5.7 19 14.4 ESE 26 41 14 22 1011.8 1009.1 0.0
26/12:30pm 31.3 25.8 5.7 20 13.8 E 24 35 13 19 1012.2 1009.5 0.0
26/12:00pm 31.4 25.1 5.8 20 13.8 ENE 28 41 15 22 1012.6 1009.9 0.0
26/11:30am 30.6 24.3 5.8 21 13.3 E 28 46 15 25 1013.1 1010.4 0.0
26/11:28am 30.0 24.1 6.0 22 12.9 E 26 46 14 25 1013.2 1010.5 0.0
26/11:00am 28.7 22.4 5.5 23 12.3 E 28 37 15 20 1013.6 1010.9 0.0
26/10:30am 27.7 21.4 5.9 25 11.6 ESE 28 39 15 21 1014.0 1011.3 0.0
26/10:00am 26.5 20.3 6.0 27 10.8 E 28 43 15 23 1014.4 1011.7 0.0
26/09:52am 26.0 19.8 6.1 28 10.5 E 28 46 15 25 1014.5 1011.8 0.0
26/09:30am 25.3 18.7 6.0 29 10.1 ESE 30 39 16 21 1014.7 1012.0 0.0
26/09:00am 25.2 19.4 6.4 30 9.9 E 26 37 14 20 1015.1 1012.5 0.0
26/08:30am 23.8 18.1 6.6 33 9.0 E 26 33 14 18 1015.3 1012.7 0.0
26/08:00am 22.5 16.3 6.3 35 8.4 ESE 28 41 15 22 1015.5 1012.8 0.0
26/07:30am 21.2 14.6 5.9 37 7.8 E 30 44 16 24 1015.6 1012.9 0.0
26/07:00am 20.9 14.8 6.4 39 7.4 ESE 28 41 15 22 1015.5 1012.8 0.0
26/06:30am 19.6 13.1 6.3 42 6.8 ESE 30 39 16 21 1015.2 1012.6 0.0
26/06:00am 20.0 14.2 6.4 41 6.9 ESE 26 35 14 19 1014.9 1012.3 0.0
26/05:30am 20.4 14.5 6.0 39 7.3 ESE 26 37 14 20 1014.7 1012.0 0.0
26/05:00am 21.4 15.2 6.1 37 7.8 ESE 28 37 15 20 1014.2 1011.5 0.0
26/04:30am 23.3 18.4 5.2 31 9.2 ESE 20 32 11 17 1013.7 1011.0 0.0
26/04:00am 23.9 19.6 5.3 30 9.5 ESE 17 24 9 13 1013.5 1010.8 0.0
26/03:30am 24.4 19.6 5.7 30 9.7 ESE 20 28 11 15 1013.3 1010.6 0.0
26/03:00am 24.6 19.9 5.9 30 9.7 ESE 20 30 11 16 1013.3 1010.6 0.0
26/02:30am 25.0 19.8 5.7 29 10.0 E 22 32 12 17 1013.3 1010.6 0.0
26/02:00am 25.3 19.4 6.0 29 10.1 E 26 41 14 22 1013.0 1010.3 0.0
26/01:30am 25.6 19.8 6.3 29 10.2 E 26 39 14 21 1012.9 1010.2 0.0
26/01:00am 25.9 20.0 6.0 28 10.5 E 26 35 14 19 1012.8 1010.1 0.0
26/12:30am 26.1 20.7 6.2 28 10.5 ESE 24 39 13 21 1012.8 1010.1 0.0
26/12:00am 26.4 21.0 6.4 28 10.6 E 24 39 13 21 1012.8 1010.1 0.0
 
Date/Time
WST
Temp
°C
App
Temp
°C
Dew
Point
Rel
Hum
%
Delta-T
°C
Wind Press
QNH
hPa
Press
MSL
hPa
Rain
since 9 am
mm
Dir
 
Spd
km/h
Gust
km/h
Spd
kts
Gust
kts
25/11:30pm 26.7 21.3 6.2 27 10.9 ESE 24 33 13 18 1013.1 1010.4 0.0
25/11:00pm 27.1 21.4 6.5 27 11.0 ESE 26 37 14 20 1013.0 1010.3 0.0
25/10:30pm 27.7 21.6 6.5 26 11.4 ESE 28 39 15 21 1012.3 1009.6 0.0
25/10:00pm 28.7 22.6 6.7 25 11.9 ESE 28 35 15 19 1011.8 1009.1 0.0
25/09:30pm 29.3 23.7 7.2 25 12.1 ESE 26 33 14 18 1011.8 1009.1 0.0
25/09:00pm 29.6 26.2 7.5 25 12.2 E 15 22 8 12 1012.0 1009.3 0.0
25/08:30pm 29.9 25.6 7.2 24 12.5 E 19 22 10 12 1011.8 1009.1 0.0
25/08:00pm 30.1 25.9 7.3 24 12.6 ENE 19 26 10 14 1011.5 1008.8 0.0
25/07:30pm 30.3 25.9 7.5 24 12.6 ENE 20 30 11 16 1011.0 1008.3 0.0
25/07:00pm 30.9 26.1 7.4 23 13.0 ENE 22 32 12 17 1010.6 1007.9 0.0
25/06:30pm 31.4 25.4 7.1 22 13.4 NE 28 39 15 21 1010.3 1007.6 0.0
25/06:00pm 32.5 26.2 5.9 19 14.5 ENE 28 39 15 21 1009.9 1007.1 0.0
25/05:30pm 33.0 27.0 5.5 18 14.9 ENE 26 35 14 19 1009.8 1007.0 0.0
25/05:00pm 33.6 28.0 5.2 17 15.4 ESE 24 37 13 20 1010.0 1007.2 0.0
25/04:30pm 33.4 27.5 5.9 18 15.0 E 26 41 14 22 1010.3 1007.6 0.0
25/04:00pm 33.7 28.6 6.1 18 15.2 ENE 22 35 12 19 1010.6 1007.9 0.0
25/03:30pm 33.8 27.6 6.2 18 15.2 ENE 28 39 15 21 1011.0 1008.3 0.0
25/03:00pm 33.7 28.2 6.1 18 15.2 ENE 24 39 13 21 1011.4 1008.7 0.0
25/02:30pm 33.8 28.4 6.2 18 15.2 E 24 35 13 19 1011.8 1009.1 0.0
25/02:00pm 33.7 27.9 6.1 18 15.2 E 26 37 14 20 1012.0 1009.3 0.0
25/01:30pm 33.1 27.7 6.4 19 14.7 ESE 24 37 13 20 1012.3 1009.6 0.0
25/01:00pm 31.7 26.4 6.7 21 13.7 E 24 41 13 22 1012.8 1010.1 0.0
25/12:35pm 31.4 25.4 7.1 22 13.4 ESE 28 46 15 25 1013.0 1010.3 0.0
25/12:30pm 32.0 26.1 7.6 22 13.6 E 28 39 15 21 1013.2 1010.5 0.0
25/12:00pm 30.2 24.0 8.0 25 12.4 ESE 30 48 16 26 1013.5 1010.8 0.0
25/11:54am 30.0 24.2 7.8 25 12.3 ESE 28 48 15 26 1013.7 1011.0 0.0
25/11:30am 28.7 22.9 7.9 27 11.5 ESE 28 43 15 23 1014.1 1011.4 0.0
25/11:00am 28.0 22.2 7.8 28 11.1 ESE 28 41 15 22 1014.7 1012.0 0.0
25/10:30am 27.7 22.1 8.6 30 10.6 E 28 41 15 22 1014.9 1012.3 0.0
25/10:00am 26.1 20.9 9.0 34 9.5 ESE 26 43 14 23 1015.2 1012.6 0.0
25/09:30am 25.4 20.7 9.3 36 8.9 ESE 24 39 13 21 1015.6 1012.9 0.0
25/09:00am 23.7 18.2 9.3 40 7.9 ESE 28 41 15 22 1015.7 1013.0 0.0
25/08:30am 23.0 17.2 9.4 42 7.5 ESE 30 43 16 23 1015.5 1012.8 0.0
25/08:00am 21.8 16.1 9.7 46 6.6 ESE 30 41 16 22 1015.2 1012.6 0.0
25/07:30am 21.8 15.8 10.0 47 6.5 ESE 32 46 17 25 1015.0 1012.4 0.0
25/07:00am 21.0 14.9 9.9 49 6.1 ESE 32 46 17 25 1014.8 1012.1 0.0
25/06:30am 21.3 15.6 9.9 48 6.3 ESE 30 43 16 23 1014.5 1011.8 0.0
25/06:00am 21.0 15.6 9.6 48 6.2 ESE 28 44 15 24 1014.0 1011.3 0.0
25/05:30am 21.2 15.7 9.1 46 6.5 ESE 28 41 15 22 1013.6 1010.9 0.0
25/05:00am 22.0 16.4 8.9 43 7.1 SE 28 39 15 21 1013.0 1010.3 0.0
25/04:45am 22.3 16.6 8.4 41 7.5 ESE 28 46 15 25 1012.8 1010.1 0.0
25/04:30am 22.8 17.4 8.1 39 7.9 ESE 26 35 14 19 1012.4 1009.8 0.0
25/04:00am 23.7 17.8 7.3 35 8.7 ESE 28 43 15 23 1012.1 1009.4 0.0
25/03:30am 24.6 18.2 6.8 32 9.4 ESE 30 41 16 22 1011.6 1008.9 0.0
25/03:00am 25.5 19.7 4.6 26 10.7 SE 24 37 13 20 1011.3 1008.6 0.0
25/02:30am 26.3 20.0 3.5 23 11.5 SE 26 35 14 19 1011.1 1008.4 0.0
25/02:00am 27.4 21.5 3.8 22 12.1 SE 24 33 13 18 1010.9 1008.2 0.0
25/01:30am 27.7 22.3 2.7 20 12.5 SE 20 35 11 19 1011.0 1008.3 0.0
25/01:00am 28.1 22.7 2.3 19 12.9 SE 20 28 11 15 1011.1 1008.4 0.0
25/12:30am 28.5 22.6 1.9 18 13.2 SE 22 30 12 16 1011.1 1008.4 0.0
25/12:00am 29.1 22.9 2.4 18 13.5 SE 24 35 13 19 1011.0 1008.3 0.0
 
Date/Time
WST
Temp
°C
App
Temp
°C
Dew
Point
Rel
Hum
%
Delta-T
°C
Wind Press
QNH
hPa
Press
MSL
hPa
Rain
since 9 am
mm
Dir
 
Spd
km/h
Gust
km/h
Spd
kts
Gust
kts
24/11:30pm 29.6 23.5 2.8 18 13.6 SE 24 33 13 18 1011.0 1008.3 0.0
24/11:00pm 30.1 23.6 2.4 17 14.0 SE 26 37 14 20 1011.0 1008.3 0.0
24/10:30pm 30.6 24.9 2.8 17 14.2 SE 22 35 12 19 1010.9 1008.2 0.0
24/10:00pm 31.0 24.8 2.3 16 14.6 SE 24 32 13 17 1010.8 1008.1 0.0
24/09:30pm 31.5 26.3 3.5 17 14.6 SE 20 32 11 17 1010.7 1008.0 0.0
24/09:00pm 32.4 26.9 4.2 17 14.9 SE 22 32 12 17 1010.7 1008.0 0.0
24/08:30pm 33.0 28.1 3.9 16 15.4 SE 19 28 10 15 1010.5 1007.8 0.0
24/08:00pm 33.3 28.2 3.2 15 15.8 SE 19 28 10 15 1010.2 1007.5 0.0
24/07:30pm 33.9 28.9 3.6 15 16.0 SE 19 28 10 15 1009.8 1007.0 0.0
24/07:00pm 34.5 29.4 4.1 15 16.3 SE 20 32 11 17 1009.4 1006.7 0.0
24/06:30pm 35.2 30.2 4.7 15 16.5 SE 20 30 11 16 1009.1 1006.4 0.0
24/06:00pm 35.7 30.6 4.1 14 17.0 SE 20 30 11 16 1009.0 1006.3 0.0
24/05:30pm 36.1 30.7 4.4 14 17.2 ESE 22 32 12 17 1008.8 1006.1 0.0
24/05:00pm 36.8 31.7 3.9 13 17.8 ESE 20 35 11 19 1008.6 1005.9 0.0
24/04:30pm 37.4 32.4 4.4 13 18.0 ESE 20 28 11 15 1008.6 1005.9 0.0
24/04:00pm 36.8 31.7 3.9 13 17.8 SE 20 32 11 17 1008.5 1005.8 0.0
24/03:30pm 36.9 32.4 4.0 13 17.8 SSE 17 32 9 17 1008.8 1006.1 0.0
24/03:00pm 36.6 31.8 4.8 14 17.4 SE 19 35 10 19 1009.1 1006.4 0.0
24/02:30pm 36.8 31.7 3.9 13 17.7 SE 20 32 11 17 1009.6 1006.9 0.0
24/02:00pm 36.6 33.1 3.7 13 17.7 SSE 11 28 6 15 1010.0 1007.2 0.0
24/01:30pm 36.5 31.3 3.7 13 17.6 SSE 20 32 11 17 1010.1 1007.4 0.0
24/01:00pm 35.8 31.1 3.1 13 17.3 SSE 17 35 9 19 1010.5 1007.8 0.0
24/12:30pm 35.2 30.6 3.7 14 16.8 SE 17 32 9 17 1010.9 1008.2 0.0
24/12:00pm 34.5 30.7 4.1 15 16.3 SSE 13 24 7 13 1011.3 1008.6 0.0
24/11:30am 33.2 28.3 4.0 16 15.5 ESE 19 30 10 16 1011.7 1009.0 0.0

Other Formats:

Comma delimited format used in spreadsheet applications
http://www.bom.gov.au/fwo/IDW60801/IDW60801.94450.axf

JavaScript Object Notation format (JSON) in row-major order
http://www.bom.gov.au/fwo/IDW60801/IDW60801.94450.json